sensor_id;sensor_type;location;lat;lon;timestamp;temperature;humidity
21149;DHT22;10732;51.472;6.466;2023-09-19T00:02:18;15.20;99.90
21149;DHT22;10732;51.472;6.466;2023-09-19T00:04:43;15.10;99.90
21149;DHT22;10732;51.472;6.466;2023-09-19T00:07:10;15.10;99.90
21149;DHT22;10732;51.472;6.466;2023-09-19T00:09:35;15.10;99.90
21149;DHT22;10732;51.472;6.466;2023-09-19T00:12:06;15.10;99.90
21149;DHT22;10732;51.472;6.466;2023-09-19T00:14:34;15.10;99.90
21149;DHT22;10732;51.472;6.466;2023-09-19T00:17:01;15.10;99.90
21149;DHT22;10732;51.472;6.466;2023-09-19T00:19:33;15.10;99.90
21149;DHT22;10732;51.472;6.466;2023-09-19T00:21:58;15.10;99.90
21149;DHT22;10732;51.472;6.466;2023-09-19T00:24:24;15.00;99.90
21149;DHT22;10732;51.472;6.466;2023-09-19T00:26:49;14.90;99.90
21149;DHT22;10732;51.472;6.466;2023-09-19T00:29:15;14.90;99.90
21149;DHT22;10732;51.472;6.466;2023-09-19T00:31:45;15.00;99.90
21149;DHT22;10732;51.472;6.466;2023-09-19T00:34:10;15.00;99.90
21149;DHT22;10732;51.472;6.466;2023-09-19T00:36:37;14.90;99.90
21149;DHT22;10732;51.472;6.466;2023-09-19T00:39:05;14.90;99.90
21149;DHT22;10732;51.472;6.466;2023-09-19T00:41:32;14.90;99.90
21149;DHT22;10732;51.472;6.466;2023-09-19T00:43:57;14.90;99.90
21149;DHT22;10732;51.472;6.466;2023-09-19T00:46:23;14.90;99.90
21149;DHT22;10732;51.472;6.466;2023-09-19T00:48:49;14.90;99.90
21149;DHT22;10732;51.472;6.466;2023-09-19T00:51:15;14.90;99.90
21149;DHT22;10732;51.472;6.466;2023-09-19T00:53:45;14.80;99.90
21149;DHT22;10732;51.472;6.466;2023-09-19T00:56:12;14.80;99.90
21149;DHT22;10732;51.472;6.466;2023-09-19T00:58:37;14.70;99.90
21149;DHT22;10732;51.472;6.466;2023-09-19T01:01:04;14.70;99.90
21149;DHT22;10732;51.472;6.466;2023-09-19T01:03:36;14.70;99.90
21149;DHT22;10732;51.472;6.466;2023-09-19T01:06:01;14.70;99.90
21149;DHT22;10732;51.472;6.466;2023-09-19T01:08:28;14.60;99.90
21149;DHT22;10732;51.472;6.466;2023-09-19T01:11:08;14.60;99.90
21149;DHT22;10732;51.472;6.466;2023-09-19T01:19:14;14.50;99.90
21149;DHT22;10732;51.472;6.466;2023-09-19T01:22:07;14.50;99.90
21149;DHT22;10732;51.472;6.466;2023-09-19T01:25:42;14.50;99.90
21149;DHT22;10732;51.472;6.466;2023-09-19T01:30:32;14.40;99.90
21149;DHT22;10732;51.472;6.466;2023-09-19T01:32:59;14.40;99.90
21149;DHT22;10732;51.472;6.466;2023-09-19T01:35:25;14.40;99.90
21149;DHT22;10732;51.472;6.466;2023-09-19T01:37:51;14.30;99.90
21149;DHT22;10732;51.472;6.466;2023-09-19T01:40:20;14.30;99.90
21149;DHT22;10732;51.472;6.466;2023-09-19T01:43:09;14.40;99.90
21149;DHT22;10732;51.472;6.466;2023-09-19T01:51:26;14.30;99.90
21149;DHT22;10732;51.472;6.466;2023-09-19T01:54:03;14.30;99.90
21149;DHT22;10732;51.472;6.466;2023-09-19T01:56:37;14.30;99.90
21149;DHT22;10732;51.472;6.466;2023-09-19T01:59:11;14.20;99.90
21149;DHT22;10732;51.472;6.466;2023-09-19T02:01:39;14.20;99.90
21149;DHT22;10732;51.472;6.466;2023-09-19T02:04:05;14.20;99.90
21149;DHT22;10732;51.472;6.466;2023-09-19T02:06:32;14.20;99.90
21149;DHT22;10732;51.472;6.466;2023-09-19T02:08:59;14.20;93.70
21149;DHT22;10732;51.472;6.466;2023-09-19T02:11:25;14.20;68.10
21149;DHT22;10732;51.472;6.466;2023-09-19T02:13:50;14.10;99.90
21149;DHT22;10732;51.472;6.466;2023-09-19T02:16:19;14.10;99.90
21149;DHT22;10732;51.472;6.466;2023-09-19T02:18:49;14.00;99.90
21149;DHT22;10732;51.472;6.466;2023-09-19T02:21:15;14.00;99.90
21149;DHT22;10732;51.472;6.466;2023-09-19T02:23:42;14.00;99.90
21149;DHT22;10732;51.472;6.466;2023-09-19T02:26:08;14.00;99.90
21149;DHT22;10732;51.472;6.466;2023-09-19T02:28:34;14.00;99.90
21149;DHT22;10732;51.472;6.466;2023-09-19T02:31:01;14.00;99.90
21149;DHT22;10732;51.472;6.466;2023-09-19T02:33:27;14.00;99.90
21149;DHT22;10732;51.472;6.466;2023-09-19T02:35:58;14.00;99.90
21149;DHT22;10732;51.472;6.466;2023-09-19T02:38:24;14.00;99.90
21149;DHT22;10732;51.472;6.466;2023-09-19T02:40:51;14.00;99.90
21149;DHT22;10732;51.472;6.466;2023-09-19T02:43:17;14.00;99.90
21149;DHT22;10732;51.472;6.466;2023-09-19T02:45:42;14.00;99.90
21149;DHT22;10732;51.472;6.466;2023-09-19T02:48:08;14.00;99.90
21149;DHT22;10732;51.472;6.466;2023-09-19T02:50:34;14.00;97.10
21149;DHT22;10732;51.472;6.466;2023-09-19T02:52:59;14.00;90.80
21149;DHT22;10732;51.472;6.466;2023-09-19T02:55:25;14.00;1.00
21149;DHT22;10732;51.472;6.466;2023-09-19T02:57:54;13.90;1.00
21149;DHT22;10732;51.472;6.466;2023-09-19T03:00:22;13.90;1.00
21149;DHT22;10732;51.472;6.466;2023-09-19T03:02:49;13.90;1.00
21149;DHT22;10732;51.472;6.466;2023-09-19T03:05:15;13.90;1.00
21149;DHT22;10732;51.472;6.466;2023-09-19T03:07:41;13.90;1.00
21149;DHT22;10732;51.472;6.466;2023-09-19T03:10:09;13.90;1.00
21149;DHT22;10732;51.472;6.466;2023-09-19T03:12:35;13.80;99.90
21149;DHT22;10732;51.472;6.466;2023-09-19T03:15:01;13.80;99.90
21149;DHT22;10732;51.472;6.466;2023-09-19T03:17:26;13.80;99.90
21149;DHT22;10732;51.472;6.466;2023-09-19T03:19:52;13.70;99.90
21149;DHT22;10732;51.472;6.466;2023-09-19T03:22:19;13.70;1.00
21149;DHT22;10732;51.472;6.466;2023-09-19T03:24:44;13.70;1.00
21149;DHT22;10732;51.472;6.466;2023-09-19T03:27:12;13.60;1.00
21149;DHT22;10732;51.472;6.466;2023-09-19T03:29:39;13.60;1.00
21149;DHT22;10732;51.472;6.466;2023-09-19T03:32:05;13.60;1.00
21149;DHT22;10732;51.472;6.466;2023-09-19T03:34:31;13.60;1.00
21149;DHT22;10732;51.472;6.466;2023-09-19T03:36:56;13.60;1.00
21149;DHT22;10732;51.472;6.466;2023-09-19T03:39:22;13.50;1.00
21149;DHT22;10732;51.472;6.466;2023-09-19T03:41:48;13.50;1.00
21149;DHT22;10732;51.472;6.466;2023-09-19T03:44:15;13.50;1.00
21149;DHT22;10732;51.472;6.466;2023-09-19T03:46:40;13.50;1.00
21149;DHT22;10732;51.472;6.466;2023-09-19T03:49:06;13.50;1.00
21149;DHT22;10732;51.472;6.466;2023-09-19T03:51:31;13.50;1.00
21149;DHT22;10732;51.472;6.466;2023-09-19T03:53:59;13.50;1.00
21149;DHT22;10732;51.472;6.466;2023-09-19T03:56:25;13.50;1.00
21149;DHT22;10732;51.472;6.466;2023-09-19T03:58:50;13.50;38.90
21149;DHT22;10732;51.472;6.466;2023-09-19T04:01:16;13.50;99.90
21149;DHT22;10732;51.472;6.466;2023-09-19T04:03:43;13.50;99.90
21149;DHT22;10732;51.472;6.466;2023-09-19T04:06:13;13.50;99.90
21149;DHT22;10732;51.472;6.466;2023-09-19T04:08:39;13.50;99.90
21149;DHT22;10732;51.472;6.466;2023-09-19T04:11:05;13.50;99.90
21149;DHT22;10732;51.472;6.466;2023-09-19T04:13:30;13.50;99.90
21149;DHT22;10732;51.472;6.466;2023-09-19T04:15:56;13.50;99.90
21149;DHT22;10732;51.472;6.466;2023-09-19T04:18:22;13.60;99.90
21149;DHT22;10732;51.472;6.466;2023-09-19T04:20:52;13.60;99.90
21149;DHT22;10732;51.472;6.466;2023-09-19T04:23:18;13.60;99.90
21149;DHT22;10732;51.472;6.466;2023-09-19T04:25:46;13.70;99.90
21149;DHT22;10732;51.472;6.466;2023-09-19T04:28:12;13.70;99.90
21149;DHT22;10732;51.472;6.466;2023-09-19T04:30:38;13.60;99.90
21149;DHT22;10732;51.472;6.466;2023-09-19T04:33:06;13.70;99.90
21149;DHT22;10732;51.472;6.466;2023-09-19T04:35:32;13.70;99.90
21149;DHT22;10732;51.472;6.466;2023-09-19T04:37:57;13.70;99.90
21149;DHT22;10732;51.472;6.466;2023-09-19T04:40:23;13.60;99.90
21149;DHT22;10732;51.472;6.466;2023-09-19T04:42:56;13.60;99.90
21149;DHT22;10732;51.472;6.466;2023-09-19T04:45:26;13.60;99.90
21149;DHT22;10732;51.472;6.466;2023-09-19T04:47:55;13.60;99.90
21149;DHT22;10732;51.472;6.466;2023-09-19T04:50:21;13.60;99.90
21149;DHT22;10732;51.472;6.466;2023-09-19T04:52:51;13.60;99.90
21149;DHT22;10732;51.472;6.466;2023-09-19T04:55:18;13.70;99.90
21149;DHT22;10732;51.472;6.466;2023-09-19T04:57:48;13.60;99.90
21149;DHT22;10732;51.472;6.466;2023-09-19T05:00:15;13.60;99.90
21149;DHT22;10732;51.472;6.466;2023-09-19T05:02:42;13.60;99.90
21149;DHT22;10732;51.472;6.466;2023-09-19T05:05:08;13.60;99.90
21149;DHT22;10732;51.472;6.466;2023-09-19T05:07:35;13.60;99.90
21149;DHT22;10732;51.472;6.466;2023-09-19T05:10:02;13.60;99.90
21149;DHT22;10732;51.472;6.466;2023-09-19T05:12:34;13.60;99.90
21149;DHT22;10732;51.472;6.466;2023-09-19T05:15:00;13.70;99.90
21149;DHT22;10732;51.472;6.466;2023-09-19T05:17:27;13.70;99.90
21149;DHT22;10732;51.472;6.466;2023-09-19T05:19:52;13.80;99.90
21149;DHT22;10732;51.472;6.466;2023-09-19T05:22:18;13.90;99.90
21149;DHT22;10732;51.472;6.466;2023-09-19T05:24:44;14.00;99.90
21149;DHT22;10732;51.472;6.466;2023-09-19T05:27:14;14.00;99.90
21149;DHT22;10732;51.472;6.466;2023-09-19T05:29:44;14.10;99.90
21149;DHT22;10732;51.472;6.466;2023-09-19T05:32:11;14.20;56.50
21149;DHT22;10732;51.472;6.466;2023-09-19T05:34:37;14.20;88.00
21149;DHT22;10732;51.472;6.466;2023-09-19T05:37:03;14.30;51.60
21149;DHT22;10732;51.472;6.466;2023-09-19T05:39:30;14.20;1.00
21149;DHT22;10732;51.472;6.466;2023-09-19T05:41:56;14.30;1.00
21149;DHT22;10732;51.472;6.466;2023-09-19T05:44:22;14.30;1.00
21149;DHT22;10732;51.472;6.466;2023-09-19T05:46:48;14.40;1.00
21149;DHT22;10732;51.472;6.466;2023-09-19T05:49:14;14.40;1.00
21149;DHT22;10732;51.472;6.466;2023-09-19T05:51:39;14.50;99.90
21149;DHT22;10732;51.472;6.466;2023-09-19T05:54:05;14.50;99.90
21149;DHT22;10732;51.472;6.466;2023-09-19T05:56:30;14.60;1.00
21149;DHT22;10732;51.472;6.466;2023-09-19T05:58:56;14.60;1.00
21149;DHT22;10732;51.472;6.466;2023-09-19T06:01:22;14.60;1.00
21149;DHT22;10732;51.472;6.466;2023-09-19T06:03:48;14.70;19.20
21149;DHT22;10732;51.472;6.466;2023-09-19T06:06:14;14.70;1.00
21149;DHT22;10732;51.472;6.466;2023-09-19T06:08:39;14.70;1.00
21149;DHT22;10732;51.472;6.466;2023-09-19T06:11:05;14.70;99.90
21149;DHT22;10732;51.472;6.466;2023-09-19T06:13:34;14.80;1.00
21149;DHT22;10732;51.472;6.466;2023-09-19T06:16:00;14.80;1.00
21149;DHT22;10732;51.472;6.466;2023-09-19T06:18:30;14.80;99.90
21149;DHT22;10732;51.472;6.466;2023-09-19T06:20:59;14.80;99.90
21149;DHT22;10732;51.472;6.466;2023-09-19T06:23:24;14.90;99.90
21149;DHT22;10732;51.472;6.466;2023-09-19T06:25:54;14.80;1.00
21149;DHT22;10732;51.472;6.466;2023-09-19T06:28:20;14.80;1.00
21149;DHT22;10732;51.472;6.466;2023-09-19T06:30:50;14.90;99.90
21149;DHT22;10732;51.472;6.466;2023-09-19T06:33:15;15.00;99.90
21149;DHT22;10732;51.472;6.466;2023-09-19T06:35:42;14.90;99.90
21149;DHT22;10732;51.472;6.466;2023-09-19T06:38:10;15.00;1.00
21149;DHT22;10732;51.472;6.466;2023-09-19T06:40:38;15.10;99.90
21149;DHT22;10732;51.472;6.466;2023-09-19T06:43:04;15.10;1.00
21149;DHT22;10732;51.472;6.466;2023-09-19T06:45:30;15.10;99.90
21149;DHT22;10732;51.472;6.466;2023-09-19T06:47:57;15.10;1.00
21149;DHT22;10732;51.472;6.466;2023-09-19T06:50:23;15.20;99.90
21149;DHT22;10732;51.472;6.466;2023-09-19T06:52:53;15.30;1.00
21149;DHT22;10732;51.472;6.466;2023-09-19T06:55:21;15.40;1.00
21149;DHT22;10732;51.472;6.466;2023-09-19T06:57:50;15.50;1.00
21149;DHT22;10732;51.472;6.466;2023-09-19T07:00:16;15.60;1.00
21149;DHT22;10732;51.472;6.466;2023-09-19T07:03:04;15.50;1.00
21149;DHT22;10732;51.472;6.466;2023-09-19T07:05:36;15.60;1.00
21149;DHT22;10732;51.472;6.466;2023-09-19T07:08:03;15.70;99.90
21149;DHT22;10732;51.472;6.466;2023-09-19T07:10:29;15.80;1.00
21149;DHT22;10732;51.472;6.466;2023-09-19T07:13:06;15.90;99.90
21149;DHT22;10732;51.472;6.466;2023-09-19T07:15:36;15.90;1.00
21149;DHT22;10732;51.472;6.466;2023-09-19T07:18:05;15.90;49.00
21149;DHT22;10732;51.472;6.466;2023-09-19T07:20:32;16.00;99.90
21149;DHT22;10732;51.472;6.466;2023-09-19T07:23:01;16.00;1.00
21149;DHT22;10732;51.472;6.466;2023-09-19T07:25:27;16.10;1.00
21149;DHT22;10732;51.472;6.466;2023-09-19T07:27:55;16.10;1.00
21149;DHT22;10732;51.472;6.466;2023-09-19T07:30:20;16.20;1.00
21149;DHT22;10732;51.472;6.466;2023-09-19T07:32:46;16.30;99.90
21149;DHT22;10732;51.472;6.466;2023-09-19T07:35:12;16.50;99.90
21149;DHT22;10732;51.472;6.466;2023-09-19T07:37:38;16.40;99.90
21149;DHT22;10732;51.472;6.466;2023-09-19T07:40:04;16.50;22.50
21149;DHT22;10732;51.472;6.466;2023-09-19T07:42:34;16.70;1.00
21149;DHT22;10732;51.472;6.466;2023-09-19T07:45:01;16.50;1.00
21149;DHT22;10732;51.472;6.466;2023-09-19T07:47:26;16.50;99.90
21149;DHT22;10732;51.472;6.466;2023-09-19T07:49:53;16.80;1.00
21149;DHT22;10732;51.472;6.466;2023-09-19T07:52:18;17.10;1.00
21149;DHT22;10732;51.472;6.466;2023-09-19T07:54:44;17.40;1.00
21149;DHT22;10732;51.472;6.466;2023-09-19T07:57:10;17.40;1.00
21149;DHT22;10732;51.472;6.466;2023-09-19T07:59:37;17.90;99.90
21149;DHT22;10732;51.472;6.466;2023-09-19T08:02:04;18.00;99.90
21149;DHT22;10732;51.472;6.466;2023-09-19T08:04:30;18.10;56.80
21149;DHT22;10732;51.472;6.466;2023-09-19T08:06:58;18.50;1.00
21149;DHT22;10732;51.472;6.466;2023-09-19T08:09:24;18.50;1.00
21149;DHT22;10732;51.472;6.466;2023-09-19T08:11:50;18.50;1.00
21149;DHT22;10732;51.472;6.466;2023-09-19T08:14:16;18.40;1.00
21149;DHT22;10732;51.472;6.466;2023-09-19T08:16:41;18.70;1.00
21149;DHT22;10732;51.472;6.466;2023-09-19T08:19:09;18.80;1.00
21149;DHT22;10732;51.472;6.466;2023-09-19T08:21:35;18.80;1.00
21149;DHT22;10732;51.472;6.466;2023-09-19T08:24:01;19.20;1.00
21149;DHT22;10732;51.472;6.466;2023-09-19T08:26:29;19.40;1.00
21149;DHT22;10732;51.472;6.466;2023-09-19T08:28:56;19.80;1.00
21149;DHT22;10732;51.472;6.466;2023-09-19T08:31:22;19.90;1.00
21149;DHT22;10732;51.472;6.466;2023-09-19T08:33:49;20.60;99.90
21149;DHT22;10732;51.472;6.466;2023-09-19T08:36:15;20.90;99.90
21149;DHT22;10732;51.472;6.466;2023-09-19T08:38:40;21.50;99.90
21149;DHT22;10732;51.472;6.466;2023-09-19T08:41:07;21.50;99.90
21149;DHT22;10732;51.472;6.466;2023-09-19T08:43:34;21.40;99.90
21149;DHT22;10732;51.472;6.466;2023-09-19T08:48:32;21.10;99.90
21149;DHT22;10732;51.472;6.466;2023-09-19T08:51:06;21.10;99.90
21149;DHT22;10732;51.472;6.466;2023-09-19T08:54:07;21.20;99.90
21149;DHT22;10732;51.472;6.466;2023-09-19T08:56:33;21.30;99.90
21149;DHT22;10732;51.472;6.466;2023-09-19T08:59:06;21.00;60.80
21149;DHT22;10732;51.472;6.466;2023-09-19T09:01:36;21.20;97.30
21149;DHT22;10732;51.472;6.466;2023-09-19T09:04:08;21.20;99.90
21149;DHT22;10732;51.472;6.466;2023-09-19T09:06:34;20.70;99.90
21149;DHT22;10732;51.472;6.466;2023-09-19T09:09:00;21.10;99.90
21149;DHT22;10732;51.472;6.466;2023-09-19T09:11:27;21.00;99.90
21149;DHT22;10732;51.472;6.466;2023-09-19T09:13:53;21.80;1.00
21149;DHT22;10732;51.472;6.466;2023-09-19T09:16:19;21.90;1.00
21149;DHT22;10732;51.472;6.466;2023-09-19T09:18:49;21.70;1.00
21149;DHT22;10732;51.472;6.466;2023-09-19T09:21:20;21.00;99.90
21149;DHT22;10732;51.472;6.466;2023-09-19T09:23:48;22.00;1.00
21149;DHT22;10732;51.472;6.466;2023-09-19T09:26:15;21.80;1.00
21149;DHT22;10732;51.472;6.466;2023-09-19T09:28:45;21.90;1.00
21149;DHT22;10732;51.472;6.466;2023-09-19T09:31:25;22.30;1.00
21149;DHT22;10732;51.472;6.466;2023-09-19T09:33:55;21.80;1.00
21149;DHT22;10732;51.472;6.466;2023-09-19T09:36:37;22.00;1.00
21149;DHT22;10732;51.472;6.466;2023-09-19T09:39:03;22.50;1.00
21149;DHT22;10732;51.472;6.466;2023-09-19T09:41:41;23.40;1.00
21149;DHT22;10732;51.472;6.466;2023-09-19T09:44:18;22.70;1.00
21149;DHT22;10732;51.472;6.466;2023-09-19T09:46:48;22.30;1.00
21149;DHT22;10732;51.472;6.466;2023-09-19T09:49:24;22.20;1.00
21149;DHT22;10732;51.472;6.466;2023-09-19T09:52:04;22.50;1.00
21149;DHT22;10732;51.472;6.466;2023-09-19T09:54:34;23.90;1.00
21149;DHT22;10732;51.472;6.466;2023-09-19T09:57:10;24.10;1.00
21149;DHT22;10732;51.472;6.466;2023-09-19T09:59:52;24.20;1.00
21149;DHT22;10732;51.472;6.466;2023-09-19T10:02:34;24.60;1.00
21149;DHT22;10732;51.472;6.466;2023-09-19T10:05:19;24.90;1.00
21149;DHT22;10732;51.472;6.466;2023-09-19T10:07:49;25.60;1.00
21149;DHT22;10732;51.472;6.466;2023-09-19T10:12:58;25.10;1.00
21149;DHT22;10732;51.472;6.466;2023-09-19T10:15:31;25.30;1.00
21149;DHT22;10732;51.472;6.466;2023-09-19T10:18:00;24.40;1.00
21149;DHT22;10732;51.472;6.466;2023-09-19T10:20:28;24.80;1.00
21149;DHT22;10732;51.472;6.466;2023-09-19T10:23:09;23.80;1.00
21149;DHT22;10732;51.472;6.466;2023-09-19T10:25:38;23.40;1.00
21149;DHT22;10732;51.472;6.466;2023-09-19T10:28:07;22.60;1.00
21149;DHT22;10732;51.472;6.466;2023-09-19T10:30:37;23.30;1.00
21149;DHT22;10732;51.472;6.466;2023-09-19T10:33:09;23.80;1.00
21149;DHT22;10732;51.472;6.466;2023-09-19T10:35:38;22.50;1.00
21149;DHT22;10732;51.472;6.466;2023-09-19T10:38:06;22.30;1.00
21149;DHT22;10732;51.472;6.466;2023-09-19T10:40:33;22.70;1.00
21149;DHT22;10732;51.472;6.466;2023-09-19T10:43:05;23.20;1.00
21149;DHT22;10732;51.472;6.466;2023-09-19T10:45:32;23.20;1.00
21149;DHT22;10732;51.472;6.466;2023-09-19T10:47:59;22.80;1.00
21149;DHT22;10732;51.472;6.466;2023-09-19T10:50:28;22.10;1.00
21149;DHT22;10732;51.472;6.466;2023-09-19T10:52:59;23.10;1.00
21149;DHT22;10732;51.472;6.466;2023-09-19T10:55:31;22.90;1.00
21149;DHT22;10732;51.472;6.466;2023-09-19T10:57:58;21.90;1.00
21149;DHT22;10732;51.472;6.466;2023-09-19T11:00:59;23.10;1.00
21149;DHT22;10732;51.472;6.466;2023-09-19T11:03:35;23.20;1.00
21149;DHT22;10732;51.472;6.466;2023-09-19T11:06:16;23.30;1.00
21149;DHT22;10732;51.472;6.466;2023-09-19T11:09:11;23.00;1.00
21149;DHT22;10732;51.472;6.466;2023-09-19T11:30:31;22.60;1.00
21149;DHT22;10732;51.472;6.466;2023-09-19T11:36:13;21.60;1.00
21149;DHT22;10732;51.472;6.466;2023-09-19T11:46:30;22.00;1.00
21149;DHT22;10732;51.472;6.466;2023-09-19T11:49:05;21.50;1.00
21149;DHT22;10732;51.472;6.466;2023-09-19T11:51:40;21.20;1.00
21149;DHT22;10732;51.472;6.466;2023-09-19T11:54:11;20.80;1.00
21149;DHT22;10732;51.472;6.466;2023-09-19T11:56:57;20.80;1.00
21149;DHT22;10732;51.472;6.466;2023-09-19T11:59:28;20.80;1.00
21149;DHT22;10732;51.472;6.466;2023-09-19T12:02:01;21.50;1.00
21149;DHT22;10732;51.472;6.466;2023-09-19T12:07:12;20.70;1.00
21149;DHT22;10732;51.472;6.466;2023-09-19T12:09:45;20.60;1.00
21149;DHT22;10732;51.472;6.466;2023-09-19T12:12:20;20.60;1.00
21149;DHT22;10732;51.472;6.466;2023-09-19T12:14:49;20.40;1.00
21149;DHT22;10732;51.472;6.466;2023-09-19T12:17:19;20.50;1.00
21149;DHT22;10732;51.472;6.466;2023-09-19T12:19:56;20.70;1.00
21149;DHT22;10732;51.472;6.466;2023-09-19T12:22:21;20.60;1.00
21149;DHT22;10732;51.472;6.466;2023-09-19T12:24:47;20.90;1.00
21149;DHT22;10732;51.472;6.466;2023-09-19T12:27:14;20.80;1.00
21149;DHT22;10732;51.472;6.466;2023-09-19T12:29:46;20.90;1.00
21149;DHT22;10732;51.472;6.466;2023-09-19T12:32:14;21.00;1.00
21149;DHT22;10732;51.472;6.466;2023-09-19T12:34:49;20.80;1.00
21149;DHT22;10732;51.472;6.466;2023-09-19T12:37:15;21.10;1.00
21149;DHT22;10732;51.472;6.466;2023-09-19T12:39:47;20.90;1.00
21149;DHT22;10732;51.472;6.466;2023-09-19T12:42:22;20.90;1.00
21149;DHT22;10732;51.472;6.466;2023-09-19T12:44:50;20.80;1.00
21149;DHT22;10732;51.472;6.466;2023-09-19T12:47:23;20.60;1.00
21149;DHT22;10732;51.472;6.466;2023-09-19T12:52:36;20.50;1.00
21149;DHT22;10732;51.472;6.466;2023-09-19T12:55:02;20.60;1.00
21149;DHT22;10732;51.472;6.466;2023-09-19T12:57:28;20.70;1.00
21149;DHT22;10732;51.472;6.466;2023-09-19T12:59:53;20.80;1.00
21149;DHT22;10732;51.472;6.466;2023-09-19T13:02:20;20.90;1.00
21149;DHT22;10732;51.472;6.466;2023-09-19T13:04:52;21.00;1.00
21149;DHT22;10732;51.472;6.466;2023-09-19T13:07:44;21.20;1.00
21149;DHT22;10732;51.472;6.466;2023-09-19T13:10:11;21.20;1.00
21149;DHT22;10732;51.472;6.466;2023-09-19T13:12:40;21.10;1.00
21149;DHT22;10732;51.472;6.466;2023-09-19T13:15:11;21.10;1.00
21149;DHT22;10732;51.472;6.466;2023-09-19T13:17:47;20.70;1.00
21149;DHT22;10732;51.472;6.466;2023-09-19T13:20:26;20.70;1.00
21149;DHT22;10732;51.472;6.466;2023-09-19T13:22:55;20.50;1.00
21149;DHT22;10732;51.472;6.466;2023-09-19T13:25:25;20.20;1.00
21149;DHT22;10732;51.472;6.466;2023-09-19T13:27:56;20.30;1.00
21149;DHT22;10732;51.472;6.466;2023-09-19T13:30:23;20.10;1.00
21149;DHT22;10732;51.472;6.466;2023-09-19T13:32:51;20.10;1.00
21149;DHT22;10732;51.472;6.466;2023-09-19T13:35:18;20.20;1.00
21149;DHT22;10732;51.472;6.466;2023-09-19T13:37:43;20.10;10.70
21149;DHT22;10732;51.472;6.466;2023-09-19T13:40:14;20.10;44.30
21149;DHT22;10732;51.472;6.466;2023-09-19T13:42:41;20.30;1.00
21149;DHT22;10732;51.472;6.466;2023-09-19T13:45:07;20.30;18.70
21149;DHT22;10732;51.472;6.466;2023-09-19T13:47:33;20.30;11.10
21149;DHT22;10732;51.472;6.466;2023-09-19T13:49:59;20.20;1.00
21149;DHT22;10732;51.472;6.466;2023-09-19T13:52:26;20.20;28.40
21149;DHT22;10732;51.472;6.466;2023-09-19T13:54:54;20.50;1.00
21149;DHT22;10732;51.472;6.466;2023-09-19T13:57:25;20.60;1.00
21149;DHT22;10732;51.472;6.466;2023-09-19T13:59:52;20.60;1.00
21149;DHT22;10732;51.472;6.466;2023-09-19T14:02:18;20.20;1.00
21149;DHT22;10732;51.472;6.466;2023-09-19T14:04:44;20.00;79.80
21149;DHT22;10732;51.472;6.466;2023-09-19T14:07:10;20.00;99.90
21149;DHT22;10732;51.472;6.466;2023-09-19T14:09:36;20.20;4.00
21149;DHT22;10732;51.472;6.466;2023-09-19T14:12:02;20.10;85.30
21149;DHT22;10732;51.472;6.466;2023-09-19T14:14:28;20.40;23.90
21149;DHT22;10732;51.472;6.466;2023-09-19T14:16:53;20.40;80.00
21149;DHT22;10732;51.472;6.466;2023-09-19T14:19:20;20.40;30.00
21149;DHT22;10732;51.472;6.466;2023-09-19T14:21:46;20.20;14.40
21149;DHT22;10732;51.472;6.466;2023-09-19T14:24:17;20.30;37.20
21149;DHT22;10732;51.472;6.466;2023-09-19T14:26:43;20.50;25.60
21149;DHT22;10732;51.472;6.466;2023-09-19T14:29:08;20.50;1.00
21149;DHT22;10732;51.472;6.466;2023-09-19T14:31:37;20.30;1.70
21149;DHT22;10732;51.472;6.466;2023-09-19T14:34:03;20.10;96.60
21149;DHT22;10732;51.472;6.466;2023-09-19T14:36:29;20.10;99.90
21149;DHT22;10732;51.472;6.466;2023-09-19T14:38:55;19.90;91.00
21149;DHT22;10732;51.472;6.466;2023-09-19T14:41:22;19.80;99.90
21149;DHT22;10732;51.472;6.466;2023-09-19T14:43:48;19.60;99.90
21149;DHT22;10732;51.472;6.466;2023-09-19T14:46:14;19.50;99.90
21149;DHT22;10732;51.472;6.466;2023-09-19T14:48:40;19.40;99.90
21149;DHT22;10732;51.472;6.466;2023-09-19T14:51:06;19.40;99.90
21149;DHT22;10732;51.472;6.466;2023-09-19T14:53:34;19.30;99.90
21149;DHT22;10732;51.472;6.466;2023-09-19T14:56:01;19.20;99.90
21149;DHT22;10732;51.472;6.466;2023-09-19T14:58:28;19.40;99.90
21149;DHT22;10732;51.472;6.466;2023-09-19T15:01:04;19.40;99.90
21149;DHT22;10732;51.472;6.466;2023-09-19T15:03:32;19.30;99.90
21149;DHT22;10732;51.472;6.466;2023-09-19T15:06:05;19.40;99.90
21149;DHT22;10732;51.472;6.466;2023-09-19T15:08:32;19.50;99.90
21149;DHT22;10732;51.472;6.466;2023-09-19T15:11:00;19.40;99.90
21149;DHT22;10732;51.472;6.466;2023-09-19T15:13:32;19.30;99.90
21149;DHT22;10732;51.472;6.466;2023-09-19T15:16:06;19.50;99.90
21149;DHT22;10732;51.472;6.466;2023-09-19T15:18:35;19.60;99.90
21149;DHT22;10732;51.472;6.466;2023-09-19T15:21:03;19.80;99.90
21149;DHT22;10732;51.472;6.466;2023-09-19T15:23:30;19.90;99.90
21149;DHT22;10732;51.472;6.466;2023-09-19T15:25:56;19.80;99.90
21149;DHT22;10732;51.472;6.466;2023-09-19T15:28:22;19.80;99.90
21149;DHT22;10732;51.472;6.466;2023-09-19T15:30:49;19.90;96.40
21149;DHT22;10732;51.472;6.466;2023-09-19T15:33:15;19.90;99.90
21149;DHT22;10732;51.472;6.466;2023-09-19T15:35:41;19.60;99.90
21149;DHT22;10732;51.472;6.466;2023-09-19T15:38:07;19.50;99.90
21149;DHT22;10732;51.472;6.466;2023-09-19T15:40:33;19.40;99.90
21149;DHT22;10732;51.472;6.466;2023-09-19T15:42:58;19.50;99.90
21149;DHT22;10732;51.472;6.466;2023-09-19T15:45:25;19.50;99.90
21149;DHT22;10732;51.472;6.466;2023-09-19T15:47:51;19.40;99.90
21149;DHT22;10732;51.472;6.466;2023-09-19T15:50:17;19.40;99.90
21149;DHT22;10732;51.472;6.466;2023-09-19T15:52:42;19.20;99.90
21149;DHT22;10732;51.472;6.466;2023-09-19T15:55:08;19.30;99.90
21149;DHT22;10732;51.472;6.466;2023-09-19T15:57:37;19.40;99.90
21149;DHT22;10732;51.472;6.466;2023-09-19T16:00:04;19.40;99.90
21149;DHT22;10732;51.472;6.466;2023-09-19T16:02:38;19.40;99.90
21149;DHT22;10732;51.472;6.466;2023-09-19T16:05:03;19.40;99.90
21149;DHT22;10732;51.472;6.466;2023-09-19T16:07:31;19.40;99.90
21149;DHT22;10732;51.472;6.466;2023-09-19T16:09:57;19.40;99.90
21149;DHT22;10732;51.472;6.466;2023-09-19T16:12:24;19.40;99.90
21149;DHT22;10732;51.472;6.466;2023-09-19T16:14:50;19.40;99.90
21149;DHT22;10732;51.472;6.466;2023-09-19T16:17:15;19.40;99.90
21149;DHT22;10732;51.472;6.466;2023-09-19T16:19:41;19.50;99.90
21149;DHT22;10732;51.472;6.466;2023-09-19T16:22:09;19.40;99.90
21149;DHT22;10732;51.472;6.466;2023-09-19T16:24:34;19.40;99.90
21149;DHT22;10732;51.472;6.466;2023-09-19T16:27:00;19.60;99.90
21149;DHT22;10732;51.472;6.466;2023-09-19T16:29:26;19.60;99.90
21149;DHT22;10732;51.472;6.466;2023-09-19T16:31:52;19.70;99.90
21149;DHT22;10732;51.472;6.466;2023-09-19T16:34:18;19.70;99.90
21149;DHT22;10732;51.472;6.466;2023-09-19T16:36:43;19.70;99.90
21149;DHT22;10732;51.472;6.466;2023-09-19T16:39:09;19.60;99.90
21149;DHT22;10732;51.472;6.466;2023-09-19T16:41:36;19.40;99.90